sensor_id;sensor_type;location;lat;lon;timestamp;P1;durP1;ratioP1;P2;durP2;ratioP2
36221;SDS011;22266;52.340;4.962;2022-09-09T00:00:39;1.75;;;1.75;;
36221;SDS011;22266;52.340;4.962;2022-09-09T00:05:46;0.25;;;0.25;;
36221;SDS011;22266;52.340;4.962;2022-09-09T00:08:35;1.00;;;1.00;;
36221;SDS011;22266;52.340;4.962;2022-09-09T00:11:18;2.00;;;2.00;;
36221;SDS011;22266;52.340;4.962;2022-09-09T00:13:56;2.00;;;2.00;;
36221;SDS011;22266;52.340;4.962;2022-09-09T00:16:31;2.50;;;2.50;;
36221;SDS011;22266;52.340;4.962;2022-09-09T00:19:07;1.75;;;1.75;;
36221;SDS011;22266;52.340;4.962;2022-09-09T00:22:22;2.00;;;2.00;;
36221;SDS011;22266;52.340;4.962;2022-09-09T00:24:45;2.00;;;2.00;;
36221;SDS011;22266;52.340;4.962;2022-09-09T00:32:54;2.00;;;1.50;;
36221;SDS011;22266;52.340;4.962;2022-09-09T00:38:05;2.50;;;2.50;;
36221;SDS011;22266;52.340;4.962;2022-09-09T00:40:41;3.00;;;2.75;;
36221;SDS011;22266;52.340;4.962;2022-09-09T00:43:19;3.33;;;3.33;;
36221;SDS011;22266;52.340;4.962;2022-09-09T00:46:16;2.00;;;2.00;;
36221;SDS011;22266;52.340;4.962;2022-09-09T00:54:38;3.25;;;3.25;;
36221;SDS011;22266;52.340;4.962;2022-09-09T00:57:16;3.00;;;2.75;;
36221;SDS011;22266;52.340;4.962;2022-09-09T00:59:52;4.75;;;4.00;;
36221;SDS011;22266;52.340;4.962;2022-09-09T01:02:31;5.33;;;5.33;;
36221;SDS011;22266;52.340;4.962;2022-09-09T01:05:13;3.75;;;2.75;;
36221;SDS011;22266;52.340;4.962;2022-09-09T01:07:48;5.50;;;5.50;;
36221;SDS011;22266;52.340;4.962;2022-09-09T01:10:27;3.33;;;3.33;;
36221;SDS011;22266;52.340;4.962;2022-09-09T01:13:02;9.33;;;6.33;;
36221;SDS011;22266;52.340;4.962;2022-09-09T01:15:39;5.67;;;4.00;;
36221;SDS011;22266;52.340;4.962;2022-09-09T01:18:08;4.33;;;4.33;;
36221;SDS011;22266;52.340;4.962;2022-09-09T01:20:52;5.33;;;5.00;;
36221;SDS011;22266;52.340;4.962;2022-09-09T01:27:10;5.75;;;5.75;;
36221;SDS011;22266;52.340;4.962;2022-09-09T01:29:39;4.67;;;4.67;;
36221;SDS011;22266;52.340;4.962;2022-09-09T01:38:06;6.67;;;6.67;;
36221;SDS011;22266;52.340;4.962;2022-09-09T01:40:33;8.33;;;8.33;;
36221;SDS011;22266;52.340;4.962;2022-09-09T01:43:00;5.00;;;5.00;;
36221;SDS011;22266;52.340;4.962;2022-09-09T01:45:27;4.00;;;4.00;;
36221;SDS011;22266;52.340;4.962;2022-09-09T01:47:54;9.67;;;8.67;;
36221;SDS011;22266;52.340;4.962;2022-09-09T01:50:41;8.00;;;8.00;;
36221;SDS011;22266;52.340;4.962;2022-09-09T01:53:08;9.67;;;9.00;;
36221;SDS011;22266;52.340;4.962;2022-09-09T01:55:40;5.00;;;5.00;;
36221;SDS011;22266;52.340;4.962;2022-09-09T02:01:33;8.67;;;8.67;;
36221;SDS011;22266;52.340;4.962;2022-09-09T02:04:07;9.00;;;8.00;;
36221;SDS011;22266;52.340;4.962;2022-09-09T02:06:45;9.00;;;9.00;;
36221;SDS011;22266;52.340;4.962;2022-09-09T02:09:21;10.67;;;10.67;;
36221;SDS011;22266;52.340;4.962;2022-09-09T02:11:53;9.33;;;9.33;;
36221;SDS011;22266;52.340;4.962;2022-09-09T02:14:38;10.00;;;9.33;;
36221;SDS011;22266;52.340;4.962;2022-09-09T02:17:10;5.67;;;5.00;;
36221;SDS011;22266;52.340;4.962;2022-09-09T02:19:55;7.00;;;5.33;;
36221;SDS011;22266;52.340;4.962;2022-09-09T02:22:39;9.33;;;7.00;;
36221;SDS011;22266;52.340;4.962;2022-09-09T02:25:12;9.00;;;7.00;;
36221;SDS011;22266;52.340;4.962;2022-09-09T02:27:42;8.00;;;8.00;;
36221;SDS011;22266;52.340;4.962;2022-09-09T02:30:11;8.00;;;8.00;;
36221;SDS011;22266;52.340;4.962;2022-09-09T02:32:44;8.00;;;8.00;;
36221;SDS011;22266;52.340;4.962;2022-09-09T02:35:17;8.00;;;8.00;;
36221;SDS011;22266;52.340;4.962;2022-09-09T02:37:48;10.00;;;7.33;;
36221;SDS011;22266;52.340;4.962;2022-09-09T02:40:19;5.00;;;5.00;;
36221;SDS011;22266;52.340;4.962;2022-09-09T02:42:54;6.67;;;5.67;;
36221;SDS011;22266;52.340;4.962;2022-09-09T02:45:25;8.00;;;5.25;;
36221;SDS011;22266;52.340;4.962;2022-09-09T02:50:46;6.67;;;4.67;;
36221;SDS011;22266;52.340;4.962;2022-09-09T02:53:28;7.67;;;7.33;;
36221;SDS011;22266;52.340;4.962;2022-09-09T02:56:12;9.00;;;6.00;;
36221;SDS011;22266;52.340;4.962;2022-09-09T02:58:46;7.00;;;7.00;;
36221;SDS011;22266;52.340;4.962;2022-09-09T03:01:12;7.00;;;7.00;;
36221;SDS011;22266;52.340;4.962;2022-09-09T03:03:40;5.67;;;5.67;;
36221;SDS011;22266;52.340;4.962;2022-09-09T03:06:12;6.00;;;6.00;;
36221;SDS011;22266;52.340;4.962;2022-09-09T03:08:38;10.33;;;8.00;;
36221;SDS011;22266;52.340;4.962;2022-09-09T03:11:05;7.67;;;7.67;;
36221;SDS011;22266;52.340;4.962;2022-09-09T03:13:35;7.00;;;7.00;;
36221;SDS011;22266;52.340;4.962;2022-09-09T03:16:04;5.50;;;5.50;;
36221;SDS011;22266;52.340;4.962;2022-09-09T03:18:35;3.50;;;3.50;;
36221;SDS011;22266;52.340;4.962;2022-09-09T03:21:02;4.67;;;4.67;;
36221;SDS011;22266;52.340;4.962;2022-09-09T03:23:29;7.00;;;6.00;;
36221;SDS011;22266;52.340;4.962;2022-09-09T03:25:57;6.67;;;6.67;;
36221;SDS011;22266;52.340;4.962;2022-09-09T03:28:34;6.67;;;5.33;;
36221;SDS011;22266;52.340;4.962;2022-09-09T03:31:02;7.00;;;6.00;;
36221;SDS011;22266;52.340;4.962;2022-09-09T03:33:34;5.33;;;4.00;;
36221;SDS011;22266;52.340;4.962;2022-09-09T03:36:04;7.00;;;6.33;;
36221;SDS011;22266;52.340;4.962;2022-09-09T03:38:31;5.00;;;5.00;;
36221;SDS011;22266;52.340;4.962;2022-09-09T03:40:58;5.33;;;5.33;;
36221;SDS011;22266;52.340;4.962;2022-09-09T03:43:26;7.00;;;6.00;;
36221;SDS011;22266;52.340;4.962;2022-09-09T03:45:53;9.00;;;8.67;;
36221;SDS011;22266;52.340;4.962;2022-09-09T03:48:24;10.00;;;9.00;;
36221;SDS011;22266;52.340;4.962;2022-09-09T03:50:53;6.67;;;6.67;;
36221;SDS011;22266;52.340;4.962;2022-09-09T03:53:22;8.00;;;6.33;;
36221;SDS011;22266;52.340;4.962;2022-09-09T03:55:52;7.00;;;7.00;;
36221;SDS011;22266;52.340;4.962;2022-09-09T03:58:26;7.33;;;6.00;;
36221;SDS011;22266;52.340;4.962;2022-09-09T04:01:00;10.00;;;8.00;;
36221;SDS011;22266;52.340;4.962;2022-09-09T04:03:29;14.00;;;10.33;;
36221;SDS011;22266;52.340;4.962;2022-09-09T04:05:56;6.00;;;5.67;;
36221;SDS011;22266;52.340;4.962;2022-09-09T04:08:29;10.33;;;7.00;;
36221;SDS011;22266;52.340;4.962;2022-09-09T04:10:58;6.00;;;6.00;;
36221;SDS011;22266;52.340;4.962;2022-09-09T04:13:28;7.00;;;5.67;;
36221;SDS011;22266;52.340;4.962;2022-09-09T04:15:57;5.00;;;5.00;;
36221;SDS011;22266;52.340;4.962;2022-09-09T04:18:25;7.00;;;7.00;;
36221;SDS011;22266;52.340;4.962;2022-09-09T04:20:53;6.67;;;6.67;;
36221;SDS011;22266;52.340;4.962;2022-09-09T04:23:25;9.33;;;6.00;;
36221;SDS011;22266;52.340;4.962;2022-09-09T04:25:56;5.00;;;5.00;;
36221;SDS011;22266;52.340;4.962;2022-09-09T04:28:27;6.00;;;6.00;;
36221;SDS011;22266;52.340;4.962;2022-09-09T04:30:57;6.00;;;5.00;;
36221;SDS011;22266;52.340;4.962;2022-09-09T04:33:29;5.33;;;3.00;;
36221;SDS011;22266;52.340;4.962;2022-09-09T04:35:57;4.67;;;4.00;;
36221;SDS011;22266;52.340;4.962;2022-09-09T04:38:25;5.00;;;4.00;;
36221;SDS011;22266;52.340;4.962;2022-09-09T04:40:53;5.00;;;4.33;;
36221;SDS011;22266;52.340;4.962;2022-09-09T04:43:20;3.00;;;3.00;;
36221;SDS011;22266;52.340;4.962;2022-09-09T04:45:49;6.00;;;6.00;;
36221;SDS011;22266;52.340;4.962;2022-09-09T04:48:20;6.00;;;6.00;;
36221;SDS011;22266;52.340;4.962;2022-09-09T04:50:57;3.25;;;3.25;;
36221;SDS011;22266;52.340;4.962;2022-09-09T04:53:26;3.00;;;3.00;;
36221;SDS011;22266;52.340;4.962;2022-09-09T04:56:14;4.00;;;3.67;;
36221;SDS011;22266;52.340;4.962;2022-09-09T04:58:50;4.33;;;3.00;;
36221;SDS011;22266;52.340;4.962;2022-09-09T05:01:17;2.00;;;2.00;;
36221;SDS011;22266;52.340;4.962;2022-09-09T05:03:48;3.00;;;3.00;;
36221;SDS011;22266;52.340;4.962;2022-09-09T05:06:19;4.50;;;4.50;;
36221;SDS011;22266;52.340;4.962;2022-09-09T05:08:52;2.75;;;2.75;;
36221;SDS011;22266;52.340;4.962;2022-09-09T05:11:23;0.00;;;0.00;;
36221;SDS011;22266;52.340;4.962;2022-09-09T05:13:54;4.67;;;4.67;;
36221;SDS011;22266;52.340;4.962;2022-09-09T05:16:21;4.33;;;4.00;;
36221;SDS011;22266;52.340;4.962;2022-09-09T05:18:49;3.33;;;2.67;;
36221;SDS011;22266;52.340;4.962;2022-09-09T05:21:18;3.00;;;3.00;;
36221;SDS011;22266;52.340;4.962;2022-09-09T05:23:46;2.00;;;2.00;;
36221;SDS011;22266;52.340;4.962;2022-09-09T05:26:14;6.00;;;4.00;;
36221;SDS011;22266;52.340;4.962;2022-09-09T05:28:45;2.00;;;2.00;;
36221;SDS011;22266;52.340;4.962;2022-09-09T05:31:12;2.67;;;2.00;;
36221;SDS011;22266;52.340;4.962;2022-09-09T05:33:42;4.75;;;1.25;;
36221;SDS011;22266;52.340;4.962;2022-09-09T05:36:13;6.00;;;2.25;;
36221;SDS011;22266;52.340;4.962;2022-09-09T05:38:44;4.00;;;3.00;;
36221;SDS011;22266;52.340;4.962;2022-09-09T05:41:11;2.50;;;2.00;;
36221;SDS011;22266;52.340;4.962;2022-09-09T05:43:39;3.33;;;3.00;;
36221;SDS011;22266;52.340;4.962;2022-09-09T05:46:09;2.00;;;2.00;;
36221;SDS011;22266;52.340;4.962;2022-09-09T05:48:41;3.00;;;3.00;;
36221;SDS011;22266;52.340;4.962;2022-09-09T05:51:10;5.00;;;3.50;;
36221;SDS011;22266;52.340;4.962;2022-09-09T05:53:38;3.75;;;3.75;;
36221;SDS011;22266;52.340;4.962;2022-09-09T05:56:06;2.50;;;2.00;;
36221;SDS011;22266;52.340;4.962;2022-09-09T05:58:52;1.00;;;1.00;;
36221;SDS011;22266;52.340;4.962;2022-09-09T06:01:22;5.25;;;5.00;;
36221;SDS011;22266;52.340;4.962;2022-09-09T06:03:50;3.00;;;2.00;;
36221;SDS011;22266;52.340;4.962;2022-09-09T06:06:20;2.50;;;1.75;;
36221;SDS011;22266;52.340;4.962;2022-09-09T06:08:53;4.00;;;4.00;;
36221;SDS011;22266;52.340;4.962;2022-09-09T06:11:26;3.50;;;3.50;;
36221;SDS011;22266;52.340;4.962;2022-09-09T06:13:54;4.00;;;2.00;;
36221;SDS011;22266;52.340;4.962;2022-09-09T06:16:21;2.25;;;2.25;;
36221;SDS011;22266;52.340;4.962;2022-09-09T06:18:50;1.00;;;1.00;;
36221;SDS011;22266;52.340;4.962;2022-09-09T06:21:18;4.25;;;2.25;;
36221;SDS011;22266;52.340;4.962;2022-09-09T06:23:53;2.67;;;2.00;;
36221;SDS011;22266;52.340;4.962;2022-09-09T06:26:27;6.00;;;3.50;;
36221;SDS011;22266;52.340;4.962;2022-09-09T06:29:00;3.00;;;3.00;;
36221;SDS011;22266;52.340;4.962;2022-09-09T06:31:30;4.00;;;3.00;;
36221;SDS011;22266;52.340;4.962;2022-09-09T06:34:06;2.00;;;2.00;;
36221;SDS011;22266;52.340;4.962;2022-09-09T06:36:38;5.33;;;3.00;;
36221;SDS011;22266;52.340;4.962;2022-09-09T06:39:06;2.00;;;2.00;;
36221;SDS011;22266;52.340;4.962;2022-09-09T06:41:40;3.00;;;3.00;;
36221;SDS011;22266;52.340;4.962;2022-09-09T06:44:13;2.50;;;2.50;;
36221;SDS011;22266;52.340;4.962;2022-09-09T06:46:40;2.00;;;2.00;;
36221;SDS011;22266;52.340;4.962;2022-09-09T06:49:09;2.75;;;2.25;;
36221;SDS011;22266;52.340;4.962;2022-09-09T06:51:36;1.50;;;1.25;;
36221;SDS011;22266;52.340;4.962;2022-09-09T06:54:11;2.75;;;2.75;;
36221;SDS011;22266;52.340;4.962;2022-09-09T06:56:41;1.25;;;1.25;;
36221;SDS011;22266;52.340;4.962;2022-09-09T06:59:19;2.00;;;1.00;;
36221;SDS011;22266;52.340;4.962;2022-09-09T07:01:46;3.00;;;2.00;;
36221;SDS011;22266;52.340;4.962;2022-09-09T07:04:18;1.75;;;1.75;;
36221;SDS011;22266;52.340;4.962;2022-09-09T07:06:45;5.00;;;2.50;;
36221;SDS011;22266;52.340;4.962;2022-09-09T07:09:16;3.00;;;3.00;;
36221;SDS011;22266;52.340;4.962;2022-09-09T07:11:46;3.00;;;3.00;;
36221;SDS011;22266;52.340;4.962;2022-09-09T07:14:18;2.75;;;2.75;;
36221;SDS011;22266;52.340;4.962;2022-09-09T07:16:48;4.50;;;2.50;;
36221;SDS011;22266;52.340;4.962;2022-09-09T07:19:16;6.00;;;6.00;;
36221;SDS011;22266;52.340;4.962;2022-09-09T07:21:44;3.75;;;3.75;;
36221;SDS011;22266;52.340;4.962;2022-09-09T07:24:13;4.00;;;4.00;;
36221;SDS011;22266;52.340;4.962;2022-09-09T07:26:41;4.25;;;3.00;;
36221;SDS011;22266;52.340;4.962;2022-09-09T07:29:08;3.00;;;3.00;;
36221;SDS011;22266;52.340;4.962;2022-09-09T07:31:36;6.00;;;4.75;;
36221;SDS011;22266;52.340;4.962;2022-09-09T07:34:07;7.00;;;4.67;;
36221;SDS011;22266;52.340;4.962;2022-09-09T07:36:35;8.00;;;6.00;;
36221;SDS011;22266;52.340;4.962;2022-09-09T07:39:06;6.67;;;5.00;;
36221;SDS011;22266;52.340;4.962;2022-09-09T07:41:44;4.33;;;4.33;;
36221;SDS011;22266;52.340;4.962;2022-09-09T07:44:17;7.25;;;5.50;;
36221;SDS011;22266;52.340;4.962;2022-09-09T07:46:48;10.50;;;7.75;;
36221;SDS011;22266;52.340;4.962;2022-09-09T07:49:19;6.67;;;6.33;;
36221;SDS011;22266;52.340;4.962;2022-09-09T07:51:54;4.67;;;4.67;;
36221;SDS011;22266;52.340;4.962;2022-09-09T07:54:21;10.33;;;8.00;;
36221;SDS011;22266;52.340;4.962;2022-09-09T07:56:51;8.00;;;8.00;;
36221;SDS011;22266;52.340;4.962;2022-09-09T07:59:21;8.00;;;6.33;;
36221;SDS011;22266;52.340;4.962;2022-09-09T08:01:51;4.75;;;4.75;;
36221;SDS011;22266;52.340;4.962;2022-09-09T08:04:23;6.67;;;5.67;;
36221;SDS011;22266;52.340;4.962;2022-09-09T08:06:53;6.33;;;6.33;;
36221;SDS011;22266;52.340;4.962;2022-09-09T08:09:23;6.50;;;6.25;;
36221;SDS011;22266;52.340;4.962;2022-09-09T08:12:04;6.50;;;6.50;;
36221;SDS011;22266;52.340;4.962;2022-09-09T08:14:33;10.00;;;5.00;;
36221;SDS011;22266;52.340;4.962;2022-09-09T08:17:00;8.33;;;6.33;;
36221;SDS011;22266;52.340;4.962;2022-09-09T08:19:28;10.33;;;10.00;;
36221;SDS011;22266;52.340;4.962;2022-09-09T08:22:00;14.67;;;12.67;;
36221;SDS011;22266;52.340;4.962;2022-09-09T08:24:29;9.00;;;9.00;;
36221;SDS011;22266;52.340;4.962;2022-09-09T08:26:55;7.25;;;6.00;;
36221;SDS011;22266;52.340;4.962;2022-09-09T08:29:23;10.33;;;9.33;;
36221;SDS011;22266;52.340;4.962;2022-09-09T08:31:52;5.50;;;5.50;;
36221;SDS011;22266;52.340;4.962;2022-09-09T08:34:20;8.33;;;8.33;;
36221;SDS011;22266;52.340;4.962;2022-09-09T08:36:49;7.25;;;7.00;;
36221;SDS011;22266;52.340;4.962;2022-09-09T08:39:20;6.33;;;6.33;;
36221;SDS011;22266;52.340;4.962;2022-09-09T08:50:25;9.50;;;8.50;;
36221;SDS011;22266;52.340;4.962;2022-09-09T08:53:26;7.25;;;7.25;;
36221;SDS011;22266;52.340;4.962;2022-09-09T08:56:03;8.50;;;8.25;;
36221;SDS011;22266;52.340;4.962;2022-09-09T08:58:54;8.00;;;7.67;;
36221;SDS011;22266;52.340;4.962;2022-09-09T09:07:12;8.00;;;8.00;;
36221;SDS011;22266;52.340;4.962;2022-09-09T09:13:15;9.67;;;9.67;;
36221;SDS011;22266;52.340;4.962;2022-09-09T09:15:50;13.00;;;11.67;;
36221;SDS011;22266;52.340;4.962;2022-09-09T09:18:22;9.00;;;7.50;;
36221;SDS011;22266;52.340;4.962;2022-09-09T09:21:04;8.00;;;7.50;;
36221;SDS011;22266;52.340;4.962;2022-09-09T09:23:43;6.50;;;6.50;;
36221;SDS011;22266;52.340;4.962;2022-09-09T09:26:18;8.00;;;7.25;;
36221;SDS011;22266;52.340;4.962;2022-09-09T09:28:46;9.00;;;7.00;;
36221;SDS011;22266;52.340;4.962;2022-09-09T09:31:18;10.50;;;9.00;;
36221;SDS011;22266;52.340;4.962;2022-09-09T09:33:47;9.00;;;7.00;;
36221;SDS011;22266;52.340;4.962;2022-09-09T09:36:19;8.25;;;8.00;;
36221;SDS011;22266;52.340;4.962;2022-09-09T09:38:57;8.50;;;6.75;;
36221;SDS011;22266;52.340;4.962;2022-09-09T09:41:46;9.00;;;9.00;;
36221;SDS011;22266;52.340;4.962;2022-09-09T09:44:27;4.75;;;4.75;;
36221;SDS011;22266;52.340;4.962;2022-09-09T09:47:07;4.00;;;4.00;;
36221;SDS011;22266;52.340;4.962;2022-09-09T09:52:31;5.75;;;5.00;;
36221;SDS011;22266;52.340;4.962;2022-09-09T09:55:02;7.25;;;5.00;;
36221;SDS011;22266;52.340;4.962;2022-09-09T09:57:33;6.75;;;6.00;;
36221;SDS011;22266;52.340;4.962;2022-09-09T10:02:43;6.33;;;6.33;;
36221;SDS011;22266;52.340;4.962;2022-09-09T10:05:18;8.00;;;6.00;;
36221;SDS011;22266;52.340;4.962;2022-09-09T10:08:04;8.75;;;7.00;;
36221;SDS011;22266;52.340;4.962;2022-09-09T10:13:27;6.00;;;5.50;;
36221;SDS011;22266;52.340;4.962;2022-09-09T10:35:41;7.00;;;5.50;;
36221;SDS011;22266;52.340;4.962;2022-09-09T10:38:20;4.50;;;4.50;;
36221;SDS011;22266;52.340;4.962;2022-09-09T10:41:11;3.50;;;3.50;;
36221;SDS011;22266;52.340;4.962;2022-09-09T10:43:56;7.50;;;3.50;;
36221;SDS011;22266;52.340;4.962;2022-09-09T10:49:47;3.00;;;3.00;;
36221;SDS011;22266;52.340;4.962;2022-09-09T10:55:26;3.50;;;3.00;;
36221;SDS011;22266;52.340;4.962;2022-09-09T10:57:59;7.75;;;7.00;;
36221;SDS011;22266;52.340;4.962;2022-09-09T11:03:03;4.50;;;4.00;;
36221;SDS011;22266;52.340;4.962;2022-09-09T11:11:02;5.25;;;5.00;;
36221;SDS011;22266;52.340;4.962;2022-09-09T11:13:55;7.25;;;5.50;;
36221;SDS011;22266;52.340;4.962;2022-09-09T11:19:18;7.25;;;7.25;;
36221;SDS011;22266;52.340;4.962;2022-09-09T11:21:53;5.25;;;5.25;;
36221;SDS011;22266;52.340;4.962;2022-09-09T11:24:40;5.00;;;5.00;;
36221;SDS011;22266;52.340;4.962;2022-09-09T11:27:13;4.00;;;4.00;;
36221;SDS011;22266;52.340;4.962;2022-09-09T11:30:05;6.00;;;5.00;;
36221;SDS011;22266;52.340;4.962;2022-09-09T11:32:43;4.00;;;4.00;;
36221;SDS011;22266;52.340;4.962;2022-09-09T11:38:47;4.00;;;4.00;;
36221;SDS011;22266;52.340;4.962;2022-09-09T11:41:19;4.00;;;4.00;;
36221;SDS011;22266;52.340;4.962;2022-09-09T11:43:48;3.00;;;3.00;;
36221;SDS011;22266;52.340;4.962;2022-09-09T11:46:36;4.00;;;4.00;;
36221;SDS011;22266;52.340;4.962;2022-09-09T11:49:06;3.00;;;3.00;;
36221;SDS011;22266;52.340;4.962;2022-09-09T11:51:49;3.00;;;3.00;;
36221;SDS011;22266;52.340;4.962;2022-09-09T11:56:56;3.00;;;3.00;;
36221;SDS011;22266;52.340;4.962;2022-09-09T11:59:26;2.00;;;2.00;;
36221;SDS011;22266;52.340;4.962;2022-09-09T12:04:28;4.00;;;4.00;;
36221;SDS011;22266;52.340;4.962;2022-09-09T12:07:04;2.25;;;2.25;;
36221;SDS011;22266;52.340;4.962;2022-09-09T12:12:40;3.50;;;2.25;;
36221;SDS011;22266;52.340;4.962;2022-09-09T12:17:42;3.00;;;2.00;;
36221;SDS011;22266;52.340;4.962;2022-09-09T12:20:14;3.00;;;3.00;;
36221;SDS011;22266;52.340;4.962;2022-09-09T12:22:45;4.00;;;4.00;;
36221;SDS011;22266;52.340;4.962;2022-09-09T12:25:53;4.00;;;4.00;;
36221;SDS011;22266;52.340;4.962;2022-09-09T12:28:22;6.25;;;4.50;;
36221;SDS011;22266;52.340;4.962;2022-09-09T12:33:38;5.00;;;5.00;;
36221;SDS011;22266;52.340;4.962;2022-09-09T12:36:12;4.00;;;4.00;;
36221;SDS011;22266;52.340;4.962;2022-09-09T12:38:42;3.00;;;3.00;;
36221;SDS011;22266;52.340;4.962;2022-09-09T12:41:19;3.75;;;3.75;;
36221;SDS011;22266;52.340;4.962;2022-09-09T12:43:50;6.50;;;6.00;;
36221;SDS011;22266;52.340;4.962;2022-09-09T12:46:22;6.75;;;6.75;;
36221;SDS011;22266;52.340;4.962;2022-09-09T12:49:20;5.75;;;5.00;;
36221;SDS011;22266;52.340;4.962;2022-09-09T12:51:54;11.00;;;9.50;;
36221;SDS011;22266;52.340;4.962;2022-09-09T12:54:23;5.00;;;5.00;;
36221;SDS011;22266;52.340;4.962;2022-09-09T12:56:49;6.25;;;5.50;;
36221;SDS011;22266;52.340;4.962;2022-09-09T12:59:26;7.75;;;7.25;;
36221;SDS011;22266;52.340;4.962;2022-09-09T13:02:01;8.25;;;5.75;;
36221;SDS011;22266;52.340;4.962;2022-09-09T13:04:28;5.25;;;5.25;;
36221;SDS011;22266;52.340;4.962;2022-09-09T13:07:04;6.75;;;6.75;;
36221;SDS011;22266;52.340;4.962;2022-09-09T13:09:32;6.00;;;6.00;;
36221;SDS011;22266;52.340;4.962;2022-09-09T13:11:59;8.50;;;7.75;;
36221;SDS011;22266;52.340;4.962;2022-09-09T13:14:29;9.50;;;9.00;;
36221;SDS011;22266;52.340;4.962;2022-09-09T13:17:01;10.25;;;5.75;;
36221;SDS011;22266;52.340;4.962;2022-09-09T13:19:30;7.00;;;6.00;;
36221;SDS011;22266;52.340;4.962;2022-09-09T13:22:14;8.25;;;7.75;;
36221;SDS011;22266;52.340;4.962;2022-09-09T13:24:46;11.00;;;11.00;;
36221;SDS011;22266;52.340;4.962;2022-09-09T13:27:29;9.00;;;9.00;;
36221;SDS011;22266;52.340;4.962;2022-09-09T13:29:57;6.00;;;5.75;;
36221;SDS011;22266;52.340;4.962;2022-09-09T13:32:24;5.75;;;5.75;;
36221;SDS011;22266;52.340;4.962;2022-09-09T13:34:57;6.75;;;6.75;;
36221;SDS011;22266;52.340;4.962;2022-09-09T13:40:06;6.00;;;6.00;;
36221;SDS011;22266;52.340;4.962;2022-09-09T13:42:43;5.75;;;5.25;;
36221;SDS011;22266;52.340;4.962;2022-09-09T13:45:21;7.50;;;6.00;;
36221;SDS011;22266;52.340;4.962;2022-09-09T13:47:50;6.00;;;6.00;;
36221;SDS011;22266;52.340;4.962;2022-09-09T13:50:28;12.50;;;9.00;;
36221;SDS011;22266;52.340;4.962;2022-09-09T13:52:56;5.00;;;5.00;;
36221;SDS011;22266;52.340;4.962;2022-09-09T13:55:27;6.00;;;6.00;;
36221;SDS011;22266;52.340;4.962;2022-09-09T14:00:28;6.25;;;6.25;;
36221;SDS011;22266;52.340;4.962;2022-09-09T14:02:56;4.75;;;3.50;;
36221;SDS011;22266;52.340;4.962;2022-09-09T14:05:22;5.25;;;5.25;;
36221;SDS011;22266;52.340;4.962;2022-09-09T14:07:49;6.25;;;6.25;;
36221;SDS011;22266;52.340;4.962;2022-09-09T14:10:18;7.00;;;6.75;;
36221;SDS011;22266;52.340;4.962;2022-09-09T14:12:45;6.50;;;6.50;;
36221;SDS011;22266;52.340;4.962;2022-09-09T14:15:12;7.50;;;7.50;;
36221;SDS011;22266;52.340;4.962;2022-09-09T14:17:40;8.25;;;6.00;;
36221;SDS011;22266;52.340;4.962;2022-09-09T14:20:07;7.00;;;7.00;;
36221;SDS011;22266;52.340;4.962;2022-09-09T14:22:35;7.25;;;7.25;;
36221;SDS011;22266;52.340;4.962;2022-09-09T14:25:02;5.50;;;5.00;;
36221;SDS011;22266;52.340;4.962;2022-09-09T14:27:30;5.50;;;5.50;;
36221;SDS011;22266;52.340;4.962;2022-09-09T14:29:56;4.00;;;4.00;;
36221;SDS011;22266;52.340;4.962;2022-09-09T14:32:23;4.00;;;4.00;;
36221;SDS011;22266;52.340;4.962;2022-09-09T14:34:50;5.00;;;5.00;;
36221;SDS011;22266;52.340;4.962;2022-09-09T14:37:16;2.75;;;2.75;;
36221;SDS011;22266;52.340;4.962;2022-09-09T14:39:44;4.00;;;4.00;;
36221;SDS011;22266;52.340;4.962;2022-09-09T14:42:10;5.00;;;5.00;;
36221;SDS011;22266;52.340;4.962;2022-09-09T14:44:37;5.25;;;4.00;;
36221;SDS011;22266;52.340;4.962;2022-09-09T14:47:05;4.25;;;4.25;;
36221;SDS011;22266;52.340;4.962;2022-09-09T14:49:33;4.25;;;4.25;;
36221;SDS011;22266;52.340;4.962;2022-09-09T14:52:00;3.00;;;3.00;;
36221;SDS011;22266;52.340;4.962;2022-09-09T14:54:27;6.00;;;4.00;;
36221;SDS011;22266;52.340;4.962;2022-09-09T14:56:54;3.00;;;3.00;;
36221;SDS011;22266;52.340;4.962;2022-09-09T14:59:20;3.25;;;3.25;;
36221;SDS011;22266;52.340;4.962;2022-09-09T15:01:48;4.00;;;3.00;;
36221;SDS011;22266;52.340;4.962;2022-09-09T15:04:14;5.00;;;5.00;;
36221;SDS011;22266;52.340;4.962;2022-09-09T15:06:42;4.00;;;3.50;;
36221;SDS011;22266;52.340;4.962;2022-09-09T15:09:13;4.75;;;4.00;;
36221;SDS011;22266;52.340;4.962;2022-09-09T15:11:40;2.25;;;2.25;;
36221;SDS011;22266;52.340;4.962;2022-09-09T15:14:07;1.75;;;1.75;;
36221;SDS011;22266;52.340;4.962;2022-09-09T15:16:35;2.00;;;1.75;;
36221;SDS011;22266;52.340;4.962;2022-09-09T15:19:02;3.00;;;3.00;;
36221;SDS011;22266;52.340;4.962;2022-09-09T15:21:30;3.00;;;2.00;;
36221;SDS011;22266;52.340;4.962;2022-09-09T15:23:58;2.00;;;2.00;;
36221;SDS011;22266;52.340;4.962;2022-09-09T15:26:25;1.00;;;1.00;;
36221;SDS011;22266;52.340;4.962;2022-09-09T15:28:53;2.75;;;2.75;;
36221;SDS011;22266;52.340;4.962;2022-09-09T15:31:24;2.00;;;2.00;;
36221;SDS011;22266;52.340;4.962;2022-09-09T15:33:55;3.75;;;3.75;;
36221;SDS011;22266;52.340;4.962;2022-09-09T15:36:32;2.25;;;2.00;;
36221;SDS011;22266;52.340;4.962;2022-09-09T15:39:01;2.75;;;2.00;;
36221;SDS011;22266;52.340;4.962;2022-09-09T15:41:29;1.00;;;1.00;;
36221;SDS011;22266;52.340;4.962;2022-09-09T15:43:57;2.00;;;2.00;;
36221;SDS011;22266;52.340;4.962;2022-09-09T15:48:52;3.75;;;3.00;;
36221;SDS011;22266;52.340;4.962;2022-09-09T15:51:23;2.00;;;2.00;;
36221;SDS011;22266;52.340;4.962;2022-09-09T15:54:08;3.00;;;3.00;;
36221;SDS011;22266;52.340;4.962;2022-09-09T15:56:39;3.75;;;2.00;;
36221;SDS011;22266;52.340;4.962;2022-09-09T15:59:06;2.25;;;1.25;;
36221;SDS011;22266;52.340;4.962;2022-09-09T16:01:33;2.00;;;2.00;;
36221;SDS011;22266;52.340;4.962;2022-09-09T16:03:59;1.50;;;1.25;;
36221;SDS011;22266;52.340;4.962;2022-09-09T16:06:27;1.75;;;1.75;;
36221;SDS011;22266;52.340;4.962;2022-09-09T16:08:55;0.25;;;0.25;;
36221;SDS011;22266;52.340;4.962;2022-09-09T16:11:24;1.00;;;1.00;;
36221;SDS011;22266;52.340;4.962;2022-09-09T16:13:53;4.00;;;3.00;;
36221;SDS011;22266;52.340;4.962;2022-09-09T16:16:22;2.00;;;2.00;;
36221;SDS011;22266;52.340;4.962;2022-09-09T16:18:54;2.00;;;2.00;;
36221;SDS011;22266;52.340;4.962;2022-09-09T16:21:26;3.00;;;2.75;;
36221;SDS011;22266;52.340;4.962;2022-09-09T16:23:58;3.00;;;3.00;;
36221;SDS011;22266;52.340;4.962;2022-09-09T16:26:26;2.00;;;2.00;;
36221;SDS011;22266;52.340;4.962;2022-09-09T16:28:53;2.00;;;2.00;;
36221;SDS011;22266;52.340;4.962;2022-09-09T16:31:24;2.00;;;2.00;;
36221;SDS011;22266;52.340;4.962;2022-09-09T16:33:53;1.75;;;1.75;;
36221;SDS011;22266;52.340;4.962;2022-09-09T16:36:21;1.50;;;1.25;;
36221;SDS011;22266;52.340;4.962;2022-09-09T16:38:52;1.00;;;1.00;;
36221;SDS011;22266;52.340;4.962;2022-09-09T16:41:20;0.25;;;0.25;;
36221;SDS011;22266;52.340;4.962;2022-09-09T16:43:47;2.00;;;2.00;;
36221;SDS011;22266;52.340;4.962;2022-09-09T16:46:18;0.00;;;0.00;;
36221;SDS011;22266;52.340;4.962;2022-09-09T16:48:46;1.00;;;1.00;;
36221;SDS011;22266;52.340;4.962;2022-09-09T16:51:14;1.00;;;1.00;;
36221;SDS011;22266;52.340;4.962;2022-09-09T16:53:42;1.50;;;0.25;;
36221;SDS011;22266;52.340;4.962;2022-09-09T16:56:11;1.00;;;1.00;;
36221;SDS011;22266;52.340;4.962;2022-09-09T16:58:40;0.00;;;0.00;;
36221;SDS011;22266;52.340;4.962;2022-09-09T17:01:09;1.00;;;1.00;;
36221;SDS011;22266;52.340;4.962;2022-09-09T17:03:37;0.75;;;0.75;;
36221;SDS011;22266;52.340;4.962;2022-09-09T17:06:08;0.75;;;0.75;;
36221;SDS011;22266;52.340;4.962;2022-09-09T17:08:39;1.25;;;1.25;;
36221;SDS011;22266;52.340;4.962;2022-09-09T17:11:14;2.00;;;2.00;;
36221;SDS011;22266;52.340;4.962;2022-09-09T17:13:42;1.25;;;1.25;;